Arthurdale, West Virginia
Current Conditions -  °F | °C
As of 7:53 AM on Thursday 27 Nov 2014 (Local Time) from KMGW Reporting Station
Haze Haze  
Wind Chill: 33°   Ceiling: 3800
Heat Index: 33°   Visibility: 4mi
Dew Point: 29°   Wind: 0mph
Humidity: 85%   Direction: NA
Pressure: 30.04"   Gusts: NA
Location:  39.49°N, 79.82°W
Report Text: KMGW 271253Z 00000KT 4SM BR BKN038 OVC048 01/M02 A3004 RMK AO2 SLP183 T00061017
Loading
Personal Weather Stations






























Interactive Weather Map New forecast layout! Learn more

10-Day Weather Forecast

Advertisements
Track Severe Weather on mobile